sensor_id;sensor_type;location;lat;lon;timestamp;P1;durP1;ratioP1;P2;durP2;ratioP2
21420;SDS011;10871;50.144;8.428;2024-01-27T00:00:13;12.30;;;2.67;;
21420;SDS011;10871;50.144;8.428;2024-01-27T00:02:40;11.48;;;2.50;;
21420;SDS011;10871;50.144;8.428;2024-01-27T00:05:08;7.38;;;2.65;;
21420;SDS011;10871;50.144;8.428;2024-01-27T00:07:34;13.65;;;2.78;;
21420;SDS011;10871;50.144;8.428;2024-01-27T00:10:02;10.18;;;2.80;;
21420;SDS011;10871;50.144;8.428;2024-01-27T00:12:28;12.48;;;2.58;;
21420;SDS011;10871;50.144;8.428;2024-01-27T00:14:55;10.52;;;2.42;;
21420;SDS011;10871;50.144;8.428;2024-01-27T00:17:22;13.27;;;2.83;;
21420;SDS011;10871;50.144;8.428;2024-01-27T00:19:51;8.65;;;2.17;;
21420;SDS011;10871;50.144;8.428;2024-01-27T00:22:20;9.60;;;2.17;;
21420;SDS011;10871;50.144;8.428;2024-01-27T00:24:47;11.00;;;2.70;;
21420;SDS011;10871;50.144;8.428;2024-01-27T00:27:15;9.52;;;3.13;;
21420;SDS011;10871;50.144;8.428;2024-01-27T00:29:42;9.27;;;2.72;;
21420;SDS011;10871;50.144;8.428;2024-01-27T00:32:09;14.50;;;3.45;;
21420;SDS011;10871;50.144;8.428;2024-01-27T00:34:36;10.02;;;3.13;;
21420;SDS011;10871;50.144;8.428;2024-01-27T00:37:03;12.02;;;2.33;;
21420;SDS011;10871;50.144;8.428;2024-01-27T00:39:31;11.25;;;2.55;;
21420;SDS011;10871;50.144;8.428;2024-01-27T00:41:57;10.30;;;2.67;;
21420;SDS011;10871;50.144;8.428;2024-01-27T00:44:25;15.68;;;2.67;;
21420;SDS011;10871;50.144;8.428;2024-01-27T00:46:51;9.75;;;2.55;;
21420;SDS011;10871;50.144;8.428;2024-01-27T00:49:18;10.10;;;2.78;;
21420;SDS011;10871;50.144;8.428;2024-01-27T00:51:45;11.18;;;2.95;;
21420;SDS011;10871;50.144;8.428;2024-01-27T00:54:11;9.70;;;2.00;;
21420;SDS011;10871;50.144;8.428;2024-01-27T00:56:38;12.73;;;2.92;;
21420;SDS011;10871;50.144;8.428;2024-01-27T00:59:05;11.13;;;2.40;;
21420;SDS011;10871;50.144;8.428;2024-01-27T01:01:31;8.32;;;2.30;;
21420;SDS011;10871;50.144;8.428;2024-01-27T01:03:58;13.50;;;2.38;;
21420;SDS011;10871;50.144;8.428;2024-01-27T01:06:25;10.85;;;2.75;;
21420;SDS011;10871;50.144;8.428;2024-01-27T01:08:51;7.68;;;2.28;;
21420;SDS011;10871;50.144;8.428;2024-01-27T01:11:18;7.35;;;2.38;;
21420;SDS011;10871;50.144;8.428;2024-01-27T01:13:44;10.20;;;2.25;;
21420;SDS011;10871;50.144;8.428;2024-01-27T01:16:11;9.95;;;2.20;;
21420;SDS011;10871;50.144;8.428;2024-01-27T01:18:38;13.00;;;2.55;;
21420;SDS011;10871;50.144;8.428;2024-01-27T01:21:05;9.57;;;2.08;;
21420;SDS011;10871;50.144;8.428;2024-01-27T01:23:32;10.90;;;2.10;;
21420;SDS011;10871;50.144;8.428;2024-01-27T01:25:59;16.08;;;2.78;;
21420;SDS011;10871;50.144;8.428;2024-01-27T01:28:25;12.40;;;2.28;;
21420;SDS011;10871;50.144;8.428;2024-01-27T01:30:52;13.60;;;3.08;;
21420;SDS011;10871;50.144;8.428;2024-01-27T01:33:18;9.82;;;2.28;;
21420;SDS011;10871;50.144;8.428;2024-01-27T01:35:46;15.75;;;2.45;;
21420;SDS011;10871;50.144;8.428;2024-01-27T01:38:13;10.55;;;2.17;;
21420;SDS011;10871;50.144;8.428;2024-01-27T01:40:40;13.57;;;3.17;;
21420;SDS011;10871;50.144;8.428;2024-01-27T01:43:10;13.43;;;2.10;;
21420;SDS011;10871;50.144;8.428;2024-01-27T01:45:39;12.60;;;2.63;;
21420;SDS011;10871;50.144;8.428;2024-01-27T01:48:07;13.40;;;2.38;;
21420;SDS011;10871;50.144;8.428;2024-01-27T01:50:34;14.75;;;2.70;;
21420;SDS011;10871;50.144;8.428;2024-01-27T01:53:01;11.63;;;2.38;;
21420;SDS011;10871;50.144;8.428;2024-01-27T01:55:27;7.65;;;2.03;;
21420;SDS011;10871;50.144;8.428;2024-01-27T01:57:54;14.65;;;2.67;;
21420;SDS011;10871;50.144;8.428;2024-01-27T02:00:20;17.38;;;2.70;;
21420;SDS011;10871;50.144;8.428;2024-01-27T02:02:47;11.57;;;2.08;;
21420;SDS011;10871;50.144;8.428;2024-01-27T02:05:14;17.05;;;2.28;;
21420;SDS011;10871;50.144;8.428;2024-01-27T02:07:41;10.27;;;2.22;;
21420;SDS011;10871;50.144;8.428;2024-01-27T02:10:12;9.95;;;2.08;;
21420;SDS011;10871;50.144;8.428;2024-01-27T02:12:39;11.38;;;2.83;;
21420;SDS011;10871;50.144;8.428;2024-01-27T02:15:08;10.65;;;2.47;;
21420;SDS011;10871;50.144;8.428;2024-01-27T02:17:35;12.45;;;2.17;;
21420;SDS011;10871;50.144;8.428;2024-01-27T02:20:02;13.75;;;2.80;;
21420;SDS011;10871;50.144;8.428;2024-01-27T02:22:29;11.23;;;1.90;;
21420;SDS011;10871;50.144;8.428;2024-01-27T02:24:55;12.95;;;2.65;;
21420;SDS011;10871;50.144;8.428;2024-01-27T02:27:21;12.85;;;2.20;;
21420;SDS011;10871;50.144;8.428;2024-01-27T02:29:48;7.47;;;1.92;;
21420;SDS011;10871;50.144;8.428;2024-01-27T02:32:15;13.88;;;2.90;;
21420;SDS011;10871;50.144;8.428;2024-01-27T02:34:42;9.80;;;2.28;;
21420;SDS011;10871;50.144;8.428;2024-01-27T02:37:09;15.75;;;2.53;;
21420;SDS011;10871;50.144;8.428;2024-01-27T02:39:36;8.80;;;2.38;;
21420;SDS011;10871;50.144;8.428;2024-01-27T02:42:02;12.60;;;2.50;;
21420;SDS011;10871;50.144;8.428;2024-01-27T02:44:29;12.13;;;2.20;;
21420;SDS011;10871;50.144;8.428;2024-01-27T02:46:55;10.30;;;2.00;;
21420;SDS011;10871;50.144;8.428;2024-01-27T02:49:22;6.72;;;1.80;;
21420;SDS011;10871;50.144;8.428;2024-01-27T02:51:49;10.10;;;2.28;;
21420;SDS011;10871;50.144;8.428;2024-01-27T02:54:15;10.95;;;1.92;;
21420;SDS011;10871;50.144;8.428;2024-01-27T02:56:42;14.75;;;2.42;;
21420;SDS011;10871;50.144;8.428;2024-01-27T02:59:09;17.90;;;2.95;;
21420;SDS011;10871;50.144;8.428;2024-01-27T03:01:35;10.25;;;1.70;;
21420;SDS011;10871;50.144;8.428;2024-01-27T03:04:02;11.00;;;2.42;;
21420;SDS011;10871;50.144;8.428;2024-01-27T03:06:30;11.15;;;2.45;;
21420;SDS011;10871;50.144;8.428;2024-01-27T03:08:56;7.80;;;1.98;;
21420;SDS011;10871;50.144;8.428;2024-01-27T03:11:23;7.55;;;2.13;;
21420;SDS011;10871;50.144;8.428;2024-01-27T03:13:50;16.73;;;2.42;;
21420;SDS011;10871;50.144;8.428;2024-01-27T03:16:16;6.68;;;2.13;;
21420;SDS011;10871;50.144;8.428;2024-01-27T03:18:44;5.93;;;2.25;;
21420;SDS011;10871;50.144;8.428;2024-01-27T03:21:11;13.48;;;2.10;;
21420;SDS011;10871;50.144;8.428;2024-01-27T03:23:38;12.27;;;2.17;;
21420;SDS011;10871;50.144;8.428;2024-01-27T03:26:04;9.23;;;2.17;;
21420;SDS011;10871;50.144;8.428;2024-01-27T03:28:31;11.68;;;2.60;;
21420;SDS011;10871;50.144;8.428;2024-01-27T03:30:58;19.35;;;2.75;;
21420;SDS011;10871;50.144;8.428;2024-01-27T03:33:26;6.05;;;2.17;;
21420;SDS011;10871;50.144;8.428;2024-01-27T03:35:55;8.52;;;2.30;;
21420;SDS011;10871;50.144;8.428;2024-01-27T03:38:22;11.45;;;2.67;;
21420;SDS011;10871;50.144;8.428;2024-01-27T03:40:49;12.25;;;2.55;;
21420;SDS011;10871;50.144;8.428;2024-01-27T03:43:15;8.93;;;1.80;;
21420;SDS011;10871;50.144;8.428;2024-01-27T03:45:42;11.25;;;2.17;;
21420;SDS011;10871;50.144;8.428;2024-01-27T03:48:08;10.75;;;2.20;;
21420;SDS011;10871;50.144;8.428;2024-01-27T03:50:35;9.80;;;2.90;;
21420;SDS011;10871;50.144;8.428;2024-01-27T03:53:02;8.07;;;2.10;;
21420;SDS011;10871;50.144;8.428;2024-01-27T03:55:29;11.80;;;2.30;;
21420;SDS011;10871;50.144;8.428;2024-01-27T03:57:55;9.15;;;2.70;;
21420;SDS011;10871;50.144;8.428;2024-01-27T04:00:22;10.18;;;2.55;;
21420;SDS011;10871;50.144;8.428;2024-01-27T04:02:49;11.65;;;2.53;;
21420;SDS011;10871;50.144;8.428;2024-01-27T04:05:16;7.70;;;2.28;;
21420;SDS011;10871;50.144;8.428;2024-01-27T04:07:43;11.05;;;2.03;;
21420;SDS011;10871;50.144;8.428;2024-01-27T04:10:09;15.43;;;2.47;;
21420;SDS011;10871;50.144;8.428;2024-01-27T04:12:36;16.77;;;2.42;;
21420;SDS011;10871;50.144;8.428;2024-01-27T04:15:03;7.53;;;2.47;;
21420;SDS011;10871;50.144;8.428;2024-01-27T04:17:30;14.52;;;2.28;;
21420;SDS011;10871;50.144;8.428;2024-01-27T04:19:56;13.77;;;2.17;;
21420;SDS011;10871;50.144;8.428;2024-01-27T04:22:23;15.15;;;2.28;;
21420;SDS011;10871;50.144;8.428;2024-01-27T04:24:49;13.30;;;2.42;;
21420;SDS011;10871;50.144;8.428;2024-01-27T04:27:16;12.02;;;2.08;;
21420;SDS011;10871;50.144;8.428;2024-01-27T04:29:42;11.07;;;2.28;;
21420;SDS011;10871;50.144;8.428;2024-01-27T04:32:09;10.07;;;2.30;;
21420;SDS011;10871;50.144;8.428;2024-01-27T04:34:36;12.63;;;2.08;;
21420;SDS011;10871;50.144;8.428;2024-01-27T04:37:04;15.02;;;2.50;;
21420;SDS011;10871;50.144;8.428;2024-01-27T04:39:30;17.05;;;2.42;;
21420;SDS011;10871;50.144;8.428;2024-01-27T04:41:57;10.90;;;2.40;;
21420;SDS011;10871;50.144;8.428;2024-01-27T04:44:24;7.25;;;2.30;;
21420;SDS011;10871;50.144;8.428;2024-01-27T04:46:51;11.57;;;2.83;;
21420;SDS011;10871;50.144;8.428;2024-01-27T04:49:17;12.55;;;2.13;;
21420;SDS011;10871;50.144;8.428;2024-01-27T04:51:46;12.48;;;2.38;;
21420;SDS011;10871;50.144;8.428;2024-01-27T04:54:12;8.18;;;2.28;;
21420;SDS011;10871;50.144;8.428;2024-01-27T04:56:39;8.55;;;2.33;;
21420;SDS011;10871;50.144;8.428;2024-01-27T04:59:06;9.77;;;2.17;;
21420;SDS011;10871;50.144;8.428;2024-01-27T05:01:33;14.30;;;3.15;;
21420;SDS011;10871;50.144;8.428;2024-01-27T05:03:59;7.00;;;2.08;;
21420;SDS011;10871;50.144;8.428;2024-01-27T05:06:26;8.13;;;2.33;;
21420;SDS011;10871;50.144;8.428;2024-01-27T05:08:53;12.05;;;2.67;;
21420;SDS011;10871;50.144;8.428;2024-01-27T05:11:29;7.15;;;2.20;;
21420;SDS011;10871;50.144;8.428;2024-01-27T05:13:56;8.88;;;2.70;;
21420;SDS011;10871;50.144;8.428;2024-01-27T05:16:23;6.78;;;1.80;;
21420;SDS011;10871;50.144;8.428;2024-01-27T05:18:49;13.65;;;2.80;;
21420;SDS011;10871;50.144;8.428;2024-01-27T05:21:16;10.98;;;3.22;;
21420;SDS011;10871;50.144;8.428;2024-01-27T05:23:44;15.48;;;2.30;;
21420;SDS011;10871;50.144;8.428;2024-01-27T05:26:11;8.88;;;2.00;;
21420;SDS011;10871;50.144;8.428;2024-01-27T05:28:38;13.15;;;3.17;;
21420;SDS011;10871;50.144;8.428;2024-01-27T05:31:08;15.57;;;2.92;;
21420;SDS011;10871;50.144;8.428;2024-01-27T05:33:35;11.68;;;2.20;;
21420;SDS011;10871;50.144;8.428;2024-01-27T05:36:02;6.45;;;2.30;;
21420;SDS011;10871;50.144;8.428;2024-01-27T05:38:29;9.20;;;2.97;;
21420;SDS011;10871;50.144;8.428;2024-01-27T05:41:01;8.85;;;2.38;;
21420;SDS011;10871;50.144;8.428;2024-01-27T05:43:28;15.73;;;3.13;;
21420;SDS011;10871;50.144;8.428;2024-01-27T05:45:55;13.73;;;2.63;;
21420;SDS011;10871;50.144;8.428;2024-01-27T05:48:21;9.05;;;2.97;;
21420;SDS011;10871;50.144;8.428;2024-01-27T05:50:57;15.32;;;2.70;;
21420;SDS011;10871;50.144;8.428;2024-01-27T05:53:24;6.15;;;2.47;;
21420;SDS011;10871;50.144;8.428;2024-01-27T05:55:51;9.05;;;2.38;;
21420;SDS011;10871;50.144;8.428;2024-01-27T05:58:18;10.25;;;2.42;;
21420;SDS011;10871;50.144;8.428;2024-01-27T06:00:48;9.32;;;2.95;;
21420;SDS011;10871;50.144;8.428;2024-01-27T06:03:15;10.18;;;2.47;;
21420;SDS011;10871;50.144;8.428;2024-01-27T06:05:43;13.35;;;2.50;;
21420;SDS011;10871;50.144;8.428;2024-01-27T06:08:10;10.20;;;2.65;;
21420;SDS011;10871;50.144;8.428;2024-01-27T06:10:36;14.13;;;2.38;;
21420;SDS011;10871;50.144;8.428;2024-01-27T06:13:03;13.38;;;2.90;;
21420;SDS011;10871;50.144;8.428;2024-01-27T06:15:30;10.52;;;2.55;;
21420;SDS011;10871;50.144;8.428;2024-01-27T06:17:56;13.00;;;2.85;;
21420;SDS011;10871;50.144;8.428;2024-01-27T06:20:27;13.40;;;3.03;;
21420;SDS011;10871;50.144;8.428;2024-01-27T06:22:54;8.63;;;2.28;;
21420;SDS011;10871;50.144;8.428;2024-01-27T06:25:20;8.20;;;2.72;;
21420;SDS011;10871;50.144;8.428;2024-01-27T06:27:47;11.90;;;2.53;;
21420;SDS011;10871;50.144;8.428;2024-01-27T06:30:13;12.60;;;3.08;;
21420;SDS011;10871;50.144;8.428;2024-01-27T06:32:41;11.25;;;2.80;;
21420;SDS011;10871;50.144;8.428;2024-01-27T06:35:08;11.60;;;2.70;;
21420;SDS011;10871;50.144;8.428;2024-01-27T06:37:35;9.82;;;2.95;;
21420;SDS011;10871;50.144;8.428;2024-01-27T06:40:02;19.85;;;3.25;;
21420;SDS011;10871;50.144;8.428;2024-01-27T06:42:29;10.30;;;3.03;;
21420;SDS011;10871;50.144;8.428;2024-01-27T06:44:57;7.45;;;2.42;;
21420;SDS011;10871;50.144;8.428;2024-01-27T06:47:24;13.77;;;3.10;;
21420;SDS011;10871;50.144;8.428;2024-01-27T06:49:51;17.77;;;2.80;;
21420;SDS011;10871;50.144;8.428;2024-01-27T06:52:17;15.07;;;3.05;;
21420;SDS011;10871;50.144;8.428;2024-01-27T06:54:44;14.10;;;3.13;;
21420;SDS011;10871;50.144;8.428;2024-01-27T06:57:21;17.98;;;3.70;;
21420;SDS011;10871;50.144;8.428;2024-01-27T06:59:49;11.45;;;3.35;;
21420;SDS011;10871;50.144;8.428;2024-01-27T07:02:22;13.52;;;3.25;;
21420;SDS011;10871;50.144;8.428;2024-01-27T07:04:48;15.48;;;2.90;;
21420;SDS011;10871;50.144;8.428;2024-01-27T07:07:15;18.33;;;3.00;;
21420;SDS011;10871;50.144;8.428;2024-01-27T07:09:42;13.00;;;2.97;;
21420;SDS011;10871;50.144;8.428;2024-01-27T07:12:09;12.18;;;3.35;;
21420;SDS011;10871;50.144;8.428;2024-01-27T07:14:35;11.95;;;2.47;;
21420;SDS011;10871;50.144;8.428;2024-01-27T07:17:03;11.10;;;2.85;;
21420;SDS011;10871;50.144;8.428;2024-01-27T07:19:30;9.70;;;2.47;;
21420;SDS011;10871;50.144;8.428;2024-01-27T07:21:57;8.25;;;2.33;;
21420;SDS011;10871;50.144;8.428;2024-01-27T07:24:24;8.73;;;2.35;;
21420;SDS011;10871;50.144;8.428;2024-01-27T07:26:51;14.25;;;2.80;;
21420;SDS011;10871;50.144;8.428;2024-01-27T07:29:21;10.07;;;2.50;;
21420;SDS011;10871;50.144;8.428;2024-01-27T07:31:49;15.75;;;3.78;;
21420;SDS011;10871;50.144;8.428;2024-01-27T07:34:16;18.67;;;3.88;;
21420;SDS011;10871;50.144;8.428;2024-01-27T07:36:43;19.02;;;3.53;;
21420;SDS011;10871;50.144;8.428;2024-01-27T07:39:10;17.13;;;3.65;;
21420;SDS011;10871;50.144;8.428;2024-01-27T07:41:37;15.88;;;3.47;;
21420;SDS011;10871;50.144;8.428;2024-01-27T07:44:10;10.82;;;3.33;;
21420;SDS011;10871;50.144;8.428;2024-01-27T07:46:37;13.20;;;3.17;;
21420;SDS011;10871;50.144;8.428;2024-01-27T07:49:05;9.43;;;3.08;;
21420;SDS011;10871;50.144;8.428;2024-01-27T07:51:32;9.20;;;3.25;;
21420;SDS011;10871;50.144;8.428;2024-01-27T07:53:59;12.88;;;2.97;;
21420;SDS011;10871;50.144;8.428;2024-01-27T07:56:26;12.35;;;3.13;;
21420;SDS011;10871;50.144;8.428;2024-01-27T07:58:53;12.73;;;3.03;;
21420;SDS011;10871;50.144;8.428;2024-01-27T08:01:20;11.75;;;3.20;;
21420;SDS011;10871;50.144;8.428;2024-01-27T08:03:46;9.23;;;2.65;;
21420;SDS011;10871;50.144;8.428;2024-01-27T08:06:15;12.60;;;2.80;;
21420;SDS011;10871;50.144;8.428;2024-01-27T08:08:44;10.25;;;2.90;;
21420;SDS011;10871;50.144;8.428;2024-01-27T08:11:11;9.73;;;3.08;;
21420;SDS011;10871;50.144;8.428;2024-01-27T08:13:38;8.80;;;2.88;;
21420;SDS011;10871;50.144;8.428;2024-01-27T08:16:04;15.10;;;3.83;;
21420;SDS011;10871;50.144;8.428;2024-01-27T08:18:31;13.00;;;4.60;;
21420;SDS011;10871;50.144;8.428;2024-01-27T08:20:58;15.27;;;4.55;;
21420;SDS011;10871;50.144;8.428;2024-01-27T08:23:25;10.02;;;3.72;;
21420;SDS011;10871;50.144;8.428;2024-01-27T08:25:52;12.43;;;3.65;;
21420;SDS011;10871;50.144;8.428;2024-01-27T08:28:19;9.65;;;3.15;;
21420;SDS011;10871;50.144;8.428;2024-01-27T08:30:45;8.98;;;2.95;;
21420;SDS011;10871;50.144;8.428;2024-01-27T08:33:12;9.75;;;3.03;;
21420;SDS011;10871;50.144;8.428;2024-01-27T08:35:39;7.93;;;2.80;;
21420;SDS011;10871;50.144;8.428;2024-01-27T08:38:06;11.57;;;3.58;;
21420;SDS011;10871;50.144;8.428;2024-01-27T08:40:32;9.20;;;2.80;;
21420;SDS011;10871;50.144;8.428;2024-01-27T08:42:59;10.43;;;3.15;;
21420;SDS011;10871;50.144;8.428;2024-01-27T08:45:25;9.05;;;2.67;;
21420;SDS011;10871;50.144;8.428;2024-01-27T08:47:53;9.43;;;3.08;;
21420;SDS011;10871;50.144;8.428;2024-01-27T08:50:20;9.27;;;3.10;;
21420;SDS011;10871;50.144;8.428;2024-01-27T08:52:47;12.85;;;4.07;;
21420;SDS011;10871;50.144;8.428;2024-01-27T08:55:15;17.13;;;4.75;;
21420;SDS011;10871;50.144;8.428;2024-01-27T08:57:46;17.38;;;5.95;;
21420;SDS011;10871;50.144;8.428;2024-01-27T09:00:12;16.75;;;5.85;;
21420;SDS011;10871;50.144;8.428;2024-01-27T09:02:39;18.13;;;6.50;;
21420;SDS011;10871;50.144;8.428;2024-01-27T09:05:06;19.92;;;6.13;;
21420;SDS011;10871;50.144;8.428;2024-01-27T09:07:33;12.90;;;5.30;;
21420;SDS011;10871;50.144;8.428;2024-01-27T09:10:00;11.10;;;4.20;;
21420;SDS011;10871;50.144;8.428;2024-01-27T09:12:27;13.90;;;3.55;;
21420;SDS011;10871;50.144;8.428;2024-01-27T09:14:54;8.73;;;3.17;;
21420;SDS011;10871;50.144;8.428;2024-01-27T09:17:20;15.32;;;4.00;;
21420;SDS011;10871;50.144;8.428;2024-01-27T09:19:47;10.30;;;3.10;;
21420;SDS011;10871;50.144;8.428;2024-01-27T09:22:15;11.18;;;3.40;;
21420;SDS011;10871;50.144;8.428;2024-01-27T09:24:41;11.07;;;3.42;;
21420;SDS011;10871;50.144;8.428;2024-01-27T09:27:08;8.45;;;3.30;;
21420;SDS011;10871;50.144;8.428;2024-01-27T09:29:35;9.60;;;2.85;;
21420;SDS011;10871;50.144;8.428;2024-01-27T09:32:02;11.27;;;3.30;;
21420;SDS011;10871;50.144;8.428;2024-01-27T09:34:28;12.85;;;3.60;;
21420;SDS011;10871;50.144;8.428;2024-01-27T09:36:56;11.57;;;3.63;;
21420;SDS011;10871;50.144;8.428;2024-01-27T09:39:23;11.20;;;3.83;;
21420;SDS011;10871;50.144;8.428;2024-01-27T09:41:50;14.77;;;5.13;;
21420;SDS011;10871;50.144;8.428;2024-01-27T09:44:17;10.07;;;4.18;;
21420;SDS011;10871;50.144;8.428;2024-01-27T09:46:44;10.68;;;4.63;;
21420;SDS011;10871;50.144;8.428;2024-01-27T09:49:11;14.07;;;5.30;;
21420;SDS011;10871;50.144;8.428;2024-01-27T09:51:43;14.70;;;5.18;;
21420;SDS011;10871;50.144;8.428;2024-01-27T09:54:09;12.35;;;4.38;;
21420;SDS011;10871;50.144;8.428;2024-01-27T09:56:36;11.82;;;4.70;;
21420;SDS011;10871;50.144;8.428;2024-01-27T09:59:05;12.60;;;4.47;;
21420;SDS011;10871;50.144;8.428;2024-01-27T10:01:32;14.25;;;4.45;;
21420;SDS011;10871;50.144;8.428;2024-01-27T10:04:00;10.07;;;4.50;;
21420;SDS011;10871;50.144;8.428;2024-01-27T10:06:26;11.02;;;4.05;;
21420;SDS011;10871;50.144;8.428;2024-01-27T10:08:54;9.95;;;4.00;;
21420;SDS011;10871;50.144;8.428;2024-01-27T10:11:21;10.55;;;4.05;;
21420;SDS011;10871;50.144;8.428;2024-01-27T10:13:55;10.25;;;4.00;;
21420;SDS011;10871;50.144;8.428;2024-01-27T10:16:25;10.95;;;4.07;;
21420;SDS011;10871;50.144;8.428;2024-01-27T10:18:59;10.63;;;4.10;;
21420;SDS011;10871;50.144;8.428;2024-01-27T10:21:25;11.13;;;4.00;;
21420;SDS011;10871;50.144;8.428;2024-01-27T10:23:53;16.20;;;4.32;;
21420;SDS011;10871;50.144;8.428;2024-01-27T10:26:20;13.95;;;4.40;;
21420;SDS011;10871;50.144;8.428;2024-01-27T10:28:56;9.48;;;4.47;;
21420;SDS011;10871;50.144;8.428;2024-01-27T10:31:26;9.93;;;4.30;;
21420;SDS011;10871;50.144;8.428;2024-01-27T10:33:53;11.68;;;3.92;;
21420;SDS011;10871;50.144;8.428;2024-01-27T10:36:21;9.35;;;3.90;;
21420;SDS011;10871;50.144;8.428;2024-01-27T10:38:47;13.40;;;4.53;;
21420;SDS011;10871;50.144;8.428;2024-01-27T10:41:18;16.27;;;4.72;;
21420;SDS011;10871;50.144;8.428;2024-01-27T10:43:46;12.82;;;4.70;;
21420;SDS011;10871;50.144;8.428;2024-01-27T10:46:16;11.88;;;4.60;;
21420;SDS011;10871;50.144;8.428;2024-01-27T10:48:45;12.07;;;4.20;;
21420;SDS011;10871;50.144;8.428;2024-01-27T10:51:13;12.68;;;4.65;;
21420;SDS011;10871;50.144;8.428;2024-01-27T10:53:42;13.68;;;4.70;;
21420;SDS011;10871;50.144;8.428;2024-01-27T10:56:10;12.27;;;4.60;;
21420;SDS011;10871;50.144;8.428;2024-01-27T10:58:37;13.45;;;4.50;;
21420;SDS011;10871;50.144;8.428;2024-01-27T11:01:10;13.95;;;4.22;;
21420;SDS011;10871;50.144;8.428;2024-01-27T11:03:39;13.88;;;4.07;;
21420;SDS011;10871;50.144;8.428;2024-01-27T11:06:09;17.27;;;3.55;;
21420;SDS011;10871;50.144;8.428;2024-01-27T11:08:37;13.27;;;3.70;;
21420;SDS011;10871;50.144;8.428;2024-01-27T11:11:09;9.43;;;3.75;;
21420;SDS011;10871;50.144;8.428;2024-01-27T11:13:36;10.52;;;3.17;;
21420;SDS011;10871;50.144;8.428;2024-01-27T11:16:03;10.95;;;4.10;;
21420;SDS011;10871;50.144;8.428;2024-01-27T11:18:30;10.98;;;3.45;;
21420;SDS011;10871;50.144;8.428;2024-01-27T11:20:58;10.23;;;3.53;;
21420;SDS011;10871;50.144;8.428;2024-01-27T11:23:31;10.15;;;3.47;;
21420;SDS011;10871;50.144;8.428;2024-01-27T11:26:05;9.85;;;4.13;;
21420;SDS011;10871;50.144;8.428;2024-01-27T11:28:31;10.75;;;4.25;;
21420;SDS011;10871;50.144;8.428;2024-01-27T11:31:02;9.73;;;3.90;;
21420;SDS011;10871;50.144;8.428;2024-01-27T11:33:29;9.00;;;3.83;;
21420;SDS011;10871;50.144;8.428;2024-01-27T11:36:03;7.53;;;3.55;;
21420;SDS011;10871;50.144;8.428;2024-01-27T11:38:31;10.30;;;4.15;;
21420;SDS011;10871;50.144;8.428;2024-01-27T11:41:03;10.63;;;3.97;;
21420;SDS011;10871;50.144;8.428;2024-01-27T11:43:30;9.13;;;3.67;;
21420;SDS011;10871;50.144;8.428;2024-01-27T11:45:57;7.65;;;3.33;;
21420;SDS011;10871;50.144;8.428;2024-01-27T11:48:24;5.43;;;2.40;;
21420;SDS011;10871;50.144;8.428;2024-01-27T11:51:05;7.32;;;2.20;;
21420;SDS011;10871;50.144;8.428;2024-01-27T11:53:32;8.85;;;2.47;;
21420;SDS011;10871;50.144;8.428;2024-01-27T11:55:58;7.40;;;3.30;;
21420;SDS011;10871;50.144;8.428;2024-01-27T11:58:26;8.32;;;2.60;;
21420;SDS011;10871;50.144;8.428;2024-01-27T12:00:53;9.93;;;2.70;;
21420;SDS011;10871;50.144;8.428;2024-01-27T12:03:20;13.00;;;3.05;;
21420;SDS011;10871;50.144;8.428;2024-01-27T12:05:47;6.70;;;4.45;;
21420;SDS011;10871;50.144;8.428;2024-01-27T12:08:14;10.50;;;3.42;;
21420;SDS011;10871;50.144;8.428;2024-01-27T12:10:40;7.93;;;3.00;;
21420;SDS011;10871;50.144;8.428;2024-01-27T12:13:08;9.77;;;2.88;;
21420;SDS011;10871;50.144;8.428;2024-01-27T12:15:35;11.60;;;3.53;;
21420;SDS011;10871;50.144;8.428;2024-01-27T12:18:04;8.00;;;4.22;;
21420;SDS011;10871;50.144;8.428;2024-01-27T12:20:30;9.50;;;6.15;;
21420;SDS011;10871;50.144;8.428;2024-01-27T12:23:06;10.57;;;3.05;;
21420;SDS011;10871;50.144;8.428;2024-01-27T12:25:34;9.05;;;2.88;;
21420;SDS011;10871;50.144;8.428;2024-01-27T12:28:04;11.10;;;3.13;;
21420;SDS011;10871;50.144;8.428;2024-01-27T12:30:32;7.75;;;2.63;;
21420;SDS011;10871;50.144;8.428;2024-01-27T12:33:00;12.75;;;6.43;;
21420;SDS011;10871;50.144;8.428;2024-01-27T12:35:29;8.60;;;2.88;;
21420;SDS011;10871;50.144;8.428;2024-01-27T12:37:59;7.75;;;2.85;;
21420;SDS011;10871;50.144;8.428;2024-01-27T12:40:26;8.63;;;4.90;;
21420;SDS011;10871;50.144;8.428;2024-01-27T12:42:53;7.50;;;2.60;;
21420;SDS011;10871;50.144;8.428;2024-01-27T12:45:20;7.13;;;2.42;;
21420;SDS011;10871;50.144;8.428;2024-01-27T12:47:47;8.07;;;3.65;;
21420;SDS011;10871;50.144;8.428;2024-01-27T12:50:14;7.35;;;4.28;;
21420;SDS011;10871;50.144;8.428;2024-01-27T12:52:42;9.57;;;2.70;;
21420;SDS011;10871;50.144;8.428;2024-01-27T12:55:08;8.50;;;2.78;;
21420;SDS011;10871;50.144;8.428;2024-01-27T12:57:36;10.30;;;2.92;;
21420;SDS011;10871;50.144;8.428;2024-01-27T13:00:03;9.35;;;2.75;;
21420;SDS011;10871;50.144;8.428;2024-01-27T13:02:36;7.53;;;2.42;;
21420;SDS011;10871;50.144;8.428;2024-01-27T13:05:03;9.50;;;2.95;;
21420;SDS011;10871;50.144;8.428;2024-01-27T13:07:30;7.75;;;3.08;;
21420;SDS011;10871;50.144;8.428;2024-01-27T13:09:57;9.02;;;2.63;;
21420;SDS011;10871;50.144;8.428;2024-01-27T13:12:23;11.70;;;2.80;;
21420;SDS011;10871;50.144;8.428;2024-01-27T13:14:50;8.25;;;2.90;;
21420;SDS011;10871;50.144;8.428;2024-01-27T13:17:17;7.68;;;2.70;;
21420;SDS011;10871;50.144;8.428;2024-01-27T13:19:43;9.98;;;2.90;;
21420;SDS011;10871;50.144;8.428;2024-01-27T13:22:10;12.30;;;2.85;;
21420;SDS011;10871;50.144;8.428;2024-01-27T13:24:37;8.98;;;2.83;;
21420;SDS011;10871;50.144;8.428;2024-01-27T13:27:04;9.00;;;4.20;;
21420;SDS011;10871;50.144;8.428;2024-01-27T13:29:32;9.65;;;4.90;;
21420;SDS011;10871;50.144;8.428;2024-01-27T13:31:59;8.68;;;3.05;;
21420;SDS011;10871;50.144;8.428;2024-01-27T13:34:28;9.13;;;3.15;;
21420;SDS011;10871;50.144;8.428;2024-01-27T13:36:57;6.93;;;2.58;;
21420;SDS011;10871;50.144;8.428;2024-01-27T13:39:25;8.48;;;2.88;;
21420;SDS011;10871;50.144;8.428;2024-01-27T13:41:51;13.25;;;3.60;;
21420;SDS011;10871;50.144;8.428;2024-01-27T13:44:18;12.20;;;4.47;;
21420;SDS011;10871;50.144;8.428;2024-01-27T13:46:45;11.20;;;3.47;;
21420;SDS011;10871;50.144;8.428;2024-01-27T13:49:11;7.82;;;2.45;;
21420;SDS011;10871;50.144;8.428;2024-01-27T13:51:38;9.30;;;3.00;;
21420;SDS011;10871;50.144;8.428;2024-01-27T13:54:05;10.48;;;2.83;;
21420;SDS011;10871;50.144;8.428;2024-01-27T13:56:35;8.50;;;2.67;;
21420;SDS011;10871;50.144;8.428;2024-01-27T13:59:02;10.95;;;3.22;;
21420;SDS011;10871;50.144;8.428;2024-01-27T14:01:30;11.18;;;3.50;;
21420;SDS011;10871;50.144;8.428;2024-01-27T14:03:57;11.45;;;2.90;;
21420;SDS011;10871;50.144;8.428;2024-01-27T14:06:24;14.23;;;2.97;;
21420;SDS011;10871;50.144;8.428;2024-01-27T14:08:50;12.30;;;2.92;;
21420;SDS011;10871;50.144;8.428;2024-01-27T14:11:17;13.18;;;2.80;;
21420;SDS011;10871;50.144;8.428;2024-01-27T14:13:45;10.95;;;3.40;;
21420;SDS011;10871;50.144;8.428;2024-01-27T14:16:12;11.15;;;4.47;;
21420;SDS011;10871;50.144;8.428;2024-01-27T14:18:39;9.73;;;2.78;;
21420;SDS011;10871;50.144;8.428;2024-01-27T14:21:06;12.80;;;2.88;;
21420;SDS011;10871;50.144;8.428;2024-01-27T14:23:32;10.13;;;3.03;;
21420;SDS011;10871;50.144;8.428;2024-01-27T14:25:59;9.27;;;2.78;;
21420;SDS011;10871;50.144;8.428;2024-01-27T14:28:25;13.38;;;3.35;;
21420;SDS011;10871;50.144;8.428;2024-01-27T14:30:52;11.40;;;3.38;;
21420;SDS011;10871;50.144;8.428;2024-01-27T14:33:19;11.63;;;4.57;;
21420;SDS011;10871;50.144;8.428;2024-01-27T14:35:47;11.20;;;2.70;;
21420;SDS011;10871;50.144;8.428;2024-01-27T14:38:14;10.75;;;2.83;;